sensor_id;sensor_type;location;lat;lon;timestamp;pressure;altitude;pressure_sealevel;temperature;humidity
84445;BME280;74683;48.402;10.596;2024-02-23T00:00:01;94521.44;;;7.22;83.85
84445;BME280;74683;48.402;10.596;2024-02-23T00:02:32;94532.28;;;7.15;83.30
84445;BME280;74683;48.402;10.596;2024-02-23T00:04:58;94537.75;;;7.15;83.56
84445;BME280;74683;48.402;10.596;2024-02-23T00:07:25;94536.53;;;7.09;83.90
84445;BME280;74683;48.402;10.596;2024-02-23T00:09:52;94543.09;;;7.04;83.97
84445;BME280;74683;48.402;10.596;2024-02-23T00:12:18;94542.69;;;7.02;83.94
84445;BME280;74683;48.402;10.596;2024-02-23T00:14:45;94557.06;;;6.96;83.96
84445;BME280;74683;48.402;10.596;2024-02-23T00:17:12;94562.06;;;6.90;83.16
84445;BME280;74683;48.402;10.596;2024-02-23T00:19:39;94556.16;;;6.84;82.58
84445;BME280;74683;48.402;10.596;2024-02-23T00:22:05;94562.78;;;6.83;81.90
84445;BME280;74683;48.402;10.596;2024-02-23T00:24:34;94567.06;;;6.84;80.48
84445;BME280;74683;48.402;10.596;2024-02-23T00:27:02;94567.06;;;6.84;80.19
84445;BME280;74683;48.402;10.596;2024-02-23T00:29:29;94567.84;;;6.85;78.98
84445;BME280;74683;48.402;10.596;2024-02-23T00:31:56;94575.25;;;6.81;80.01
84445;BME280;74683;48.402;10.596;2024-02-23T00:34:23;94575.56;;;6.76;79.20
84445;BME280;74683;48.402;10.596;2024-02-23T00:36:49;94583.31;;;6.70;78.67
84445;BME280;74683;48.402;10.596;2024-02-23T00:39:16;94590.34;;;6.71;78.50
84445;BME280;74683;48.402;10.596;2024-02-23T00:41:43;94583.25;;;6.67;78.26
84445;BME280;74683;48.402;10.596;2024-02-23T00:44:09;94589.41;;;6.60;77.99
84445;BME280;74683;48.402;10.596;2024-02-23T00:46:36;94595.69;;;6.64;76.30
84445;BME280;74683;48.402;10.596;2024-02-23T00:49:03;94592.16;;;6.60;76.37
84445;BME280;74683;48.402;10.596;2024-02-23T00:51:29;94589.72;;;6.55;77.13
84445;BME280;74683;48.402;10.596;2024-02-23T00:53:56;94598.66;;;6.52;76.79
84445;BME280;74683;48.402;10.596;2024-02-23T00:56:23;94596.66;;;6.49;76.57
84445;BME280;74683;48.402;10.596;2024-02-23T00:59:01;94602.44;;;6.44;76.22
84445;BME280;74683;48.402;10.596;2024-02-23T01:01:27;94609.81;;;6.40;76.47
84445;BME280;74683;48.402;10.596;2024-02-23T01:03:55;94607.88;;;6.40;75.39
84445;BME280;74683;48.402;10.596;2024-02-23T01:06:22;94621.50;;;6.40;74.83
84445;BME280;74683;48.402;10.596;2024-02-23T01:08:48;94612.06;;;6.34;75.27
84445;BME280;74683;48.402;10.596;2024-02-23T01:11:15;94628.00;;;6.32;75.36
84445;BME280;74683;48.402;10.596;2024-02-23T01:13:42;94633.09;;;6.33;73.48
84445;BME280;74683;48.402;10.596;2024-02-23T01:16:08;94629.97;;;6.31;74.69
84445;BME280;74683;48.402;10.596;2024-02-23T01:18:35;94642.75;;;6.27;75.07
84445;BME280;74683;48.402;10.596;2024-02-23T01:21:02;94651.31;;;6.26;74.34
84445;BME280;74683;48.402;10.596;2024-02-23T01:23:28;94647.38;;;6.23;74.89
84445;BME280;74683;48.402;10.596;2024-02-23T01:25:55;94647.31;;;6.20;74.99
84445;BME280;74683;48.402;10.596;2024-02-23T01:28:21;94656.59;;;6.15;75.41
84445;BME280;74683;48.402;10.596;2024-02-23T01:30:49;94651.13;;;6.15;74.84
84445;BME280;74683;48.402;10.596;2024-02-23T01:33:15;94676.91;;;6.18;74.89
84445;BME280;74683;48.402;10.596;2024-02-23T01:35:42;94704.59;;;5.97;75.16
84445;BME280;74683;48.402;10.596;2024-02-23T01:38:09;94704.03;;;5.45;76.76
84445;BME280;74683;48.402;10.596;2024-02-23T01:40:35;94710.69;;;5.09;78.73
84445;BME280;74683;48.402;10.596;2024-02-23T01:43:05;94710.19;;;4.84;80.85
84445;BME280;74683;48.402;10.596;2024-02-23T01:45:32;94707.03;;;4.47;83.77
84445;BME280;74683;48.402;10.596;2024-02-23T01:47:59;94717.50;;;4.29;85.03
84445;BME280;74683;48.402;10.596;2024-02-23T01:50:27;94720.84;;;4.07;87.03
84445;BME280;74683;48.402;10.596;2024-02-23T01:52:56;94715.94;;;3.97;87.52
84445;BME280;74683;48.402;10.596;2024-02-23T01:55:23;94703.22;;;3.85;88.22
84445;BME280;74683;48.402;10.596;2024-02-23T01:57:50;94721.88;;;3.71;88.39
84445;BME280;74683;48.402;10.596;2024-02-23T02:00:18;94726.31;;;3.63;88.51
84445;BME280;74683;48.402;10.596;2024-02-23T02:02:45;94719.03;;;3.52;88.29
84445;BME280;74683;48.402;10.596;2024-02-23T02:05:13;94721.81;;;3.39;89.04
84445;BME280;74683;48.402;10.596;2024-02-23T02:07:43;94735.66;;;3.34;89.19
84445;BME280;74683;48.402;10.596;2024-02-23T02:10:10;94736.66;;;3.30;89.14
84445;BME280;74683;48.402;10.596;2024-02-23T02:12:36;94739.66;;;3.25;89.79
84445;BME280;74683;48.402;10.596;2024-02-23T02:15:04;94736.38;;;3.19;89.34
84445;BME280;74683;48.402;10.596;2024-02-23T02:17:30;94742.50;;;3.16;89.40
84445;BME280;74683;48.402;10.596;2024-02-23T02:20:03;94750.53;;;3.12;89.53
84445;BME280;74683;48.402;10.596;2024-02-23T02:22:33;94740.38;;;3.09;89.78
84445;BME280;74683;48.402;10.596;2024-02-23T02:25:00;94737.31;;;3.11;89.59
84445;BME280;74683;48.402;10.596;2024-02-23T02:27:27;94725.56;;;3.07;90.03
84445;BME280;74683;48.402;10.596;2024-02-23T02:29:54;94729.06;;;3.07;89.18
84445;BME280;74683;48.402;10.596;2024-02-23T02:32:20;94726.72;;;3.06;89.10
84445;BME280;74683;48.402;10.596;2024-02-23T02:34:47;94733.72;;;3.07;89.24
84445;BME280;74683;48.402;10.596;2024-02-23T02:37:14;94750.44;;;3.09;89.42
84445;BME280;74683;48.402;10.596;2024-02-23T02:39:41;94748.50;;;3.09;89.01
84445;BME280;74683;48.402;10.596;2024-02-23T02:42:08;94757.00;;;3.08;89.12
84445;BME280;74683;48.402;10.596;2024-02-23T02:44:34;94748.88;;;3.08;89.79
84445;BME280;74683;48.402;10.596;2024-02-23T02:47:01;94753.50;;;3.07;88.81
84445;BME280;74683;48.402;10.596;2024-02-23T02:49:28;94746.94;;;3.08;89.26
84445;BME280;74683;48.402;10.596;2024-02-23T02:51:54;94735.28;;;3.08;88.72
84445;BME280;74683;48.402;10.596;2024-02-23T02:54:21;94735.63;;;3.06;89.12
84445;BME280;74683;48.402;10.596;2024-02-23T02:56:48;94753.06;;;3.05;89.14
84445;BME280;74683;48.402;10.596;2024-02-23T02:59:16;94744.13;;;3.05;88.58
84445;BME280;74683;48.402;10.596;2024-02-23T03:01:45;94731.66;;;3.04;89.03
84445;BME280;74683;48.402;10.596;2024-02-23T03:04:13;94736.00;;;3.05;88.61
84445;BME280;74683;48.402;10.596;2024-02-23T03:06:40;94738.34;;;3.06;88.57
84445;BME280;74683;48.402;10.596;2024-02-23T03:09:06;94739.50;;;3.05;88.75
84445;BME280;74683;48.402;10.596;2024-02-23T03:11:33;94735.16;;;3.04;88.81
84445;BME280;74683;48.402;10.596;2024-02-23T03:14:00;94727.38;;;3.03;88.76
84445;BME280;74683;48.402;10.596;2024-02-23T03:16:27;94723.09;;;3.02;88.82
84445;BME280;74683;48.402;10.596;2024-02-23T03:18:56;94718.78;;;3.01;89.08
84445;BME280;74683;48.402;10.596;2024-02-23T03:21:23;94722.66;;;3.00;88.97
84445;BME280;74683;48.402;10.596;2024-02-23T03:23:50;94725.34;;;3.00;89.54
84445;BME280;74683;48.402;10.596;2024-02-23T03:26:16;94719.50;;;2.98;89.94
84445;BME280;74683;48.402;10.596;2024-02-23T03:28:43;94729.13;;;2.95;90.08
84445;BME280;74683;48.402;10.596;2024-02-23T03:31:10;94722.56;;;2.96;90.48
84445;BME280;74683;48.402;10.596;2024-02-23T03:33:37;94729.56;;;2.97;89.93
84445;BME280;74683;48.402;10.596;2024-02-23T03:36:04;94720.50;;;2.93;90.01
84445;BME280;74683;48.402;10.596;2024-02-23T03:38:31;94720.84;;;2.92;90.19
84445;BME280;74683;48.402;10.596;2024-02-23T03:40:58;94724.69;;;2.91;90.51
84445;BME280;74683;48.402;10.596;2024-02-23T03:43:25;94718.13;;;2.92;90.92
84445;BME280;74683;48.402;10.596;2024-02-23T03:45:51;94720.16;;;2.95;90.96
84445;BME280;74683;48.402;10.596;2024-02-23T03:48:18;94721.28;;;2.94;91.14
84445;BME280;74683;48.402;10.596;2024-02-23T03:50:45;94727.41;;;2.91;90.52
84445;BME280;74683;48.402;10.596;2024-02-23T03:53:12;94729.34;;;2.90;91.10
84445;BME280;74683;48.402;10.596;2024-02-23T03:55:38;94713.50;;;2.92;91.20
84445;BME280;74683;48.402;10.596;2024-02-23T03:58:05;94722.09;;;2.94;90.94
84445;BME280;74683;48.402;10.596;2024-02-23T04:00:32;94723.56;;;2.92;91.45
84445;BME280;74683;48.402;10.596;2024-02-23T04:02:59;94725.41;;;2.87;91.18
84445;BME280;74683;48.402;10.596;2024-02-23T04:05:25;94727.69;;;2.85;91.48
84445;BME280;74683;48.402;10.596;2024-02-23T04:07:52;94741.13;;;2.82;91.60
84445;BME280;74683;48.402;10.596;2024-02-23T04:10:19;94739.09;;;2.79;91.80
84445;BME280;74683;48.402;10.596;2024-02-23T04:12:47;94733.22;;;2.77;91.23
84445;BME280;74683;48.402;10.596;2024-02-23T04:15:13;94730.88;;;2.75;91.82
84445;BME280;74683;48.402;10.596;2024-02-23T04:17:40;94724.97;;;2.73;91.88
84445;BME280;74683;48.402;10.596;2024-02-23T04:20:07;94735.81;;;2.73;91.94
84445;BME280;74683;48.402;10.596;2024-02-23T04:22:36;94752.00;;;2.70;92.10
84445;BME280;74683;48.402;10.596;2024-02-23T04:25:04;94755.84;;;2.69;92.35
84445;BME280;74683;48.402;10.596;2024-02-23T04:27:32;94745.34;;;2.67;91.99
84445;BME280;74683;48.402;10.596;2024-02-23T04:29:58;94746.91;;;2.68;92.50
84445;BME280;74683;48.402;10.596;2024-02-23T04:32:25;94742.28;;;2.69;91.72
84445;BME280;74683;48.402;10.596;2024-02-23T04:34:52;94744.22;;;2.68;92.05
84445;BME280;74683;48.402;10.596;2024-02-23T04:37:19;94750.06;;;2.70;92.14
84445;BME280;74683;48.402;10.596;2024-02-23T04:39:46;94754.28;;;2.68;91.88
84445;BME280;74683;48.402;10.596;2024-02-23T04:42:12;94746.13;;;2.68;91.76
84445;BME280;74683;48.402;10.596;2024-02-23T04:44:41;94741.84;;;2.67;92.00
84445;BME280;74683;48.402;10.596;2024-02-23T04:47:08;94741.84;;;2.67;91.81
84445;BME280;74683;48.402;10.596;2024-02-23T04:49:35;94741.38;;;2.65;91.85
84445;BME280;74683;48.402;10.596;2024-02-23T04:52:02;94737.41;;;2.62;91.77
84445;BME280;74683;48.402;10.596;2024-02-23T04:54:29;94741.63;;;2.59;91.58
84445;BME280;74683;48.402;10.596;2024-02-23T04:56:55;94744.22;;;2.56;91.85
84445;BME280;74683;48.402;10.596;2024-02-23T04:59:22;94738.34;;;2.54;91.85
84445;BME280;74683;48.402;10.596;2024-02-23T05:01:49;94737.19;;;2.55;91.70
84445;BME280;74683;48.402;10.596;2024-02-23T05:04:16;94736.75;;;2.53;91.90
84445;BME280;74683;48.402;10.596;2024-02-23T05:06:42;94726.59;;;2.50;91.95
84445;BME280;74683;48.402;10.596;2024-02-23T05:09:10;94727.72;;;2.49;91.71
84445;BME280;74683;48.402;10.596;2024-02-23T05:11:37;94731.22;;;2.49;91.85
84445;BME280;74683;48.402;10.596;2024-02-23T05:14:04;94730.44;;;2.49;92.01
84445;BME280;74683;48.402;10.596;2024-02-23T05:16:32;94730.00;;;2.47;91.88
84445;BME280;74683;48.402;10.596;2024-02-23T05:18:59;94740.84;;;2.47;91.91
84445;BME280;74683;48.402;10.596;2024-02-23T05:21:25;94752.94;;;2.49;91.89
84445;BME280;74683;48.402;10.596;2024-02-23T05:23:52;94752.94;;;2.49;91.70
84445;BME280;74683;48.402;10.596;2024-02-23T05:26:19;94756.88;;;2.52;91.51
84445;BME280;74683;48.402;10.596;2024-02-23T05:28:46;94763.09;;;2.52;90.92
84445;BME280;74683;48.402;10.596;2024-02-23T05:31:12;94757.66;;;2.52;90.42
84445;BME280;74683;48.402;10.596;2024-02-23T05:33:39;94766.16;;;2.51;90.69
84445;BME280;74683;48.402;10.596;2024-02-23T05:36:06;94762.53;;;2.47;90.40
84445;BME280;74683;48.402;10.596;2024-02-23T05:38:33;94758.22;;;2.46;90.65
84445;BME280;74683;48.402;10.596;2024-02-23T05:40:59;94770.53;;;2.43;90.24
84445;BME280;74683;48.402;10.596;2024-02-23T05:43:27;94766.59;;;2.41;90.48
84445;BME280;74683;48.402;10.596;2024-02-23T05:45:54;94776.56;;;2.37;90.56
84445;BME280;74683;48.402;10.596;2024-02-23T05:48:23;94772.03;;;2.41;90.93
84445;BME280;74683;48.402;10.596;2024-02-23T05:50:50;94776.41;;;2.45;91.09
84445;BME280;74683;48.402;10.596;2024-02-23T05:53:17;94780.84;;;2.50;90.51
84445;BME280;74683;48.402;10.596;2024-02-23T05:55:43;94786.72;;;2.52;89.89
84445;BME280;74683;48.402;10.596;2024-02-23T05:58:10;94784.34;;;2.50;90.06
84445;BME280;74683;48.402;10.596;2024-02-23T06:00:36;94779.25;;;2.49;89.93
84445;BME280;74683;48.402;10.596;2024-02-23T06:03:03;94768.84;;;2.51;89.66
84445;BME280;74683;48.402;10.596;2024-02-23T06:05:30;94772.34;;;2.51;89.59
84445;BME280;74683;48.402;10.596;2024-02-23T06:07:57;94776.19;;;2.50;89.38
84445;BME280;74683;48.402;10.596;2024-02-23T06:10:23;94790.75;;;2.46;89.50
84445;BME280;74683;48.402;10.596;2024-02-23T06:12:51;94799.59;;;2.43;90.35
84445;BME280;74683;48.402;10.596;2024-02-23T06:15:21;94806.16;;;2.42;90.38
84445;BME280;74683;48.402;10.596;2024-02-23T06:17:48;94796.44;;;2.41;90.40
84445;BME280;74683;48.402;10.596;2024-02-23T06:20:15;94799.94;;;2.41;90.54
84445;BME280;74683;48.402;10.596;2024-02-23T06:22:41;94796.44;;;2.41;90.61
84445;BME280;74683;48.402;10.596;2024-02-23T06:25:08;94788.28;;;2.41;90.50
84445;BME280;74683;48.402;10.596;2024-02-23T06:27:35;94787.59;;;2.44;90.08
84445;BME280;74683;48.402;10.596;2024-02-23T06:30:03;94785.34;;;2.46;90.33
84445;BME280;74683;48.402;10.596;2024-02-23T06:32:30;94791.69;;;2.50;90.64
84445;BME280;74683;48.402;10.596;2024-02-23T06:34:56;94787.06;;;2.50;90.68
84445;BME280;74683;48.402;10.596;2024-02-23T06:37:26;94783.56;;;2.50;90.58
84445;BME280;74683;48.402;10.596;2024-02-23T06:39:53;94780.84;;;2.50;90.68
84445;BME280;74683;48.402;10.596;2024-02-23T06:42:21;94780.84;;;2.50;91.35
84445;BME280;74683;48.402;10.596;2024-02-23T06:44:48;94783.00;;;2.56;90.47
84445;BME280;74683;48.402;10.596;2024-02-23T06:47:15;94781.97;;;2.61;90.09
84445;BME280;74683;48.402;10.596;2024-02-23T06:49:43;94783.66;;;2.66;90.28
84445;BME280;74683;48.402;10.596;2024-02-23T06:52:10;94786.47;;;2.69;90.41
84445;BME280;74683;48.402;10.596;2024-02-23T06:54:36;94800.94;;;2.73;90.61
84445;BME280;74683;48.402;10.596;2024-02-23T06:57:03;94804.56;;;2.77;90.10
84445;BME280;74683;48.402;10.596;2024-02-23T06:59:30;94803.88;;;2.80;89.96
84445;BME280;74683;48.402;10.596;2024-02-23T07:01:57;94816.75;;;2.83;89.70
84445;BME280;74683;48.402;10.596;2024-02-23T07:04:24;94824.88;;;2.83;89.46
84445;BME280;74683;48.402;10.596;2024-02-23T07:06:51;94823.75;;;2.84;90.10
84445;BME280;74683;48.402;10.596;2024-02-23T07:09:18;94828.41;;;2.84;90.08
84445;BME280;74683;48.402;10.596;2024-02-23T07:11:44;94826.94;;;2.86;90.07
84445;BME280;74683;48.402;10.596;2024-02-23T07:14:12;94823.09;;;2.87;89.74
84445;BME280;74683;48.402;10.596;2024-02-23T07:16:40;94826.69;;;2.92;89.93
84445;BME280;74683;48.402;10.596;2024-02-23T07:19:07;94822.50;;;2.94;90.21
84445;BME280;74683;48.402;10.596;2024-02-23T07:21:35;94831.56;;;2.98;89.30
84445;BME280;74683;48.402;10.596;2024-02-23T07:24:01;94816.94;;;3.03;90.01
84445;BME280;74683;48.402;10.596;2024-02-23T07:26:28;94814.81;;;3.08;90.21
84445;BME280;74683;48.402;10.596;2024-02-23T07:28:56;94823.50;;;3.14;89.69
84445;BME280;74683;48.402;10.596;2024-02-23T07:31:23;94809.69;;;3.19;89.64
84445;BME280;74683;48.402;10.596;2024-02-23T07:33:49;94817.13;;;3.22;89.75
84445;BME280;74683;48.402;10.596;2024-02-23T07:36:17;94800.97;;;3.26;89.78
84445;BME280;74683;48.402;10.596;2024-02-23T07:38:44;94797.22;;;3.30;89.07
84445;BME280;74683;48.402;10.596;2024-02-23T07:41:11;94798.28;;;3.41;88.93
84445;BME280;74683;48.402;10.596;2024-02-23T07:43:40;94802.81;;;3.50;89.06
84445;BME280;74683;48.402;10.596;2024-02-23T07:46:06;94801.06;;;3.57;87.51
84445;BME280;74683;48.402;10.596;2024-02-23T07:48:36;94814.09;;;3.64;88.15
84445;BME280;74683;48.402;10.596;2024-02-23T07:51:04;94804.44;;;3.66;87.88
84445;BME280;74683;48.402;10.596;2024-02-23T07:53:31;94803.31;;;3.67;87.88
84445;BME280;74683;48.402;10.596;2024-02-23T07:55:59;94793.22;;;3.68;86.91
84445;BME280;74683;48.402;10.596;2024-02-23T07:58:28;94790.50;;;3.68;87.08
84445;BME280;74683;48.402;10.596;2024-02-23T08:00:55;94791.38;;;3.72;87.26
84445;BME280;74683;48.402;10.596;2024-02-23T08:03:21;94789.22;;;3.78;87.12
84445;BME280;74683;48.402;10.596;2024-02-23T08:05:48;94810.38;;;3.84;86.32
84445;BME280;74683;48.402;10.596;2024-02-23T08:08:14;94813.97;;;3.88;85.78
84445;BME280;74683;48.402;10.596;2024-02-23T08:10:41;94829.41;;;4.00;85.76
84445;BME280;74683;48.402;10.596;2024-02-23T08:13:07;94827.59;;;4.04;85.28
84445;BME280;74683;48.402;10.596;2024-02-23T08:15:42;94835.28;;;4.02;84.13
84445;BME280;74683;48.402;10.596;2024-02-23T08:18:26;94830.75;;;4.06;84.32
84445;BME280;74683;48.402;10.596;2024-02-23T08:20:53;94834.59;;;4.05;84.38
84445;BME280;74683;48.402;10.596;2024-02-23T08:23:20;94839.56;;;4.03;84.27
84445;BME280;74683;48.402;10.596;2024-02-23T08:25:47;94836.63;;;4.08;84.21
84445;BME280;74683;48.402;10.596;2024-02-23T08:28:13;94834.00;;;4.12;83.69
84445;BME280;74683;48.402;10.596;2024-02-23T08:30:40;94839.88;;;4.14;83.09
84445;BME280;74683;48.402;10.596;2024-02-23T08:33:06;94846.00;;;4.11;82.62
84445;BME280;74683;48.402;10.596;2024-02-23T08:35:36;94839.88;;;4.14;82.78
84445;BME280;74683;48.402;10.596;2024-02-23T08:38:03;94841.34;;;4.11;82.23
84445;BME280;74683;48.402;10.596;2024-02-23T08:40:31;94852.59;;;4.10;82.11
84445;BME280;74683;48.402;10.596;2024-02-23T08:42:57;94870.41;;;4.07;82.49
84445;BME280;74683;48.402;10.596;2024-02-23T08:45:24;94873.03;;;4.03;82.20
84445;BME280;74683;48.402;10.596;2024-02-23T08:47:50;94872.13;;;3.99;81.94
84445;BME280;74683;48.402;10.596;2024-02-23T08:50:17;94858.88;;;3.98;82.11
84445;BME280;74683;48.402;10.596;2024-02-23T08:52:44;94854.22;;;3.98;82.49
84445;BME280;74683;48.402;10.596;2024-02-23T08:55:11;94851.16;;;4.00;82.47
84445;BME280;74683;48.402;10.596;2024-02-23T08:57:38;94852.38;;;4.02;82.91
84445;BME280;74683;48.402;10.596;2024-02-23T09:00:05;94853.53;;;4.01;81.96
84445;BME280;74683;48.402;10.596;2024-02-23T09:02:33;94860.75;;;4.10;82.50
84445;BME280;74683;48.402;10.596;2024-02-23T09:05:02;94859.38;;;4.16;81.65
84445;BME280;74683;48.402;10.596;2024-02-23T09:07:29;94850.84;;;4.17;81.03
84445;BME280;74683;48.402;10.596;2024-02-23T09:09:56;94858.06;;;4.25;81.97
84445;BME280;74683;48.402;10.596;2024-02-23T09:12:23;94859.38;;;4.31;81.89
84445;BME280;74683;48.402;10.596;2024-02-23T09:14:50;94870.34;;;4.35;80.69
84445;BME280;74683;48.402;10.596;2024-02-23T09:17:16;94868.50;;;4.39;79.72
84445;BME280;74683;48.402;10.596;2024-02-23T09:19:45;94875.09;;;4.38;79.39
84445;BME280;74683;48.402;10.596;2024-02-23T09:22:12;94875.09;;;4.38;79.17
84445;BME280;74683;48.402;10.596;2024-02-23T09:24:41;94878.38;;;4.44;80.65
84445;BME280;74683;48.402;10.596;2024-02-23T09:27:08;94876.25;;;4.37;79.40
84445;BME280;74683;48.402;10.596;2024-02-23T09:29:35;94882.53;;;4.41;80.05
84445;BME280;74683;48.402;10.596;2024-02-23T09:32:01;94887.66;;;4.43;80.35
84445;BME280;74683;48.402;10.596;2024-02-23T09:34:28;94884.84;;;4.39;79.58
84445;BME280;74683;48.402;10.596;2024-02-23T09:36:56;94879.41;;;4.39;80.69
84445;BME280;74683;48.402;10.596;2024-02-23T09:39:22;94887.31;;;4.44;80.96
84445;BME280;74683;48.402;10.596;2024-02-23T09:41:50;94884.59;;;4.44;80.61
84445;BME280;74683;48.402;10.596;2024-02-23T09:44:18;94886.59;;;4.47;80.56
84445;BME280;74683;48.402;10.596;2024-02-23T09:46:45;94878.19;;;4.52;80.76
84445;BME280;74683;48.402;10.596;2024-02-23T09:49:14;94890.91;;;4.48;79.99
84445;BME280;74683;48.402;10.596;2024-02-23T09:51:42;94889.69;;;4.46;80.19
84445;BME280;74683;48.402;10.596;2024-02-23T09:54:10;94885.28;;;4.41;79.33
84445;BME280;74683;48.402;10.596;2024-02-23T09:56:37;94885.63;;;4.40;78.38
84445;BME280;74683;48.402;10.596;2024-02-23T09:59:04;94884.41;;;4.37;78.93
84445;BME280;74683;48.402;10.596;2024-02-23T10:01:32;94890.28;;;4.39;78.63
84445;BME280;74683;48.402;10.596;2024-02-23T10:04:02;94884.94;;;4.43;79.17
84445;BME280;74683;48.402;10.596;2024-02-23T10:06:31;94890.03;;;4.44;78.97
84445;BME280;74683;48.402;10.596;2024-02-23T10:08:58;94888.97;;;4.49;78.62
84445;BME280;74683;48.402;10.596;2024-02-23T10:11:25;94884.31;;;4.49;78.16
84445;BME280;74683;48.402;10.596;2024-02-23T10:13:52;94882.16;;;4.55;77.73
84445;BME280;74683;48.402;10.596;2024-02-23T10:16:20;94879.59;;;4.62;77.22
84445;BME280;74683;48.402;10.596;2024-02-23T10:18:47;94888.22;;;4.64;77.31
84445;BME280;74683;48.402;10.596;2024-02-23T10:21:17;94887.31;;;4.60;75.93
84445;BME280;74683;48.402;10.596;2024-02-23T10:23:44;94888.22;;;4.64;76.39
84445;BME280;74683;48.402;10.596;2024-02-23T10:26:12;94881.97;;;4.64;75.66
84445;BME280;74683;48.402;10.596;2024-02-23T10:28:38;94879.69;;;4.66;75.23
84445;BME280;74683;48.402;10.596;2024-02-23T10:31:06;94884.84;;;4.71;74.95
84445;BME280;74683;48.402;10.596;2024-02-23T10:33:38;94878.72;;;4.74;75.10
84445;BME280;74683;48.402;10.596;2024-02-23T10:36:06;94883.22;;;4.82;75.32
84445;BME280;74683;48.402;10.596;2024-02-23T10:38:37;94883.09;;;4.78;73.60
84445;BME280;74683;48.402;10.596;2024-02-23T10:41:05;94886.81;;;4.86;75.42
84445;BME280;74683;48.402;10.596;2024-02-23T10:43:47;94883.53;;;4.96;75.13
84445;BME280;74683;48.402;10.596;2024-02-23T10:46:14;94894.97;;;5.02;74.58
84445;BME280;74683;48.402;10.596;2024-02-23T10:48:43;94888.56;;;4.94;74.08
84445;BME280;74683;48.402;10.596;2024-02-23T10:51:13;94891.53;;;4.89;72.96
84445;BME280;74683;48.402;10.596;2024-02-23T10:53:43;94896.28;;;4.92;72.98
84445;BME280;74683;48.402;10.596;2024-02-23T10:56:11;94890.84;;;4.92;74.16
84445;BME280;74683;48.402;10.596;2024-02-23T10:58:47;94879.59;;;4.94;72.94
84445;BME280;74683;48.402;10.596;2024-02-23T11:01:14;94881.53;;;4.93;73.20
84445;BME280;74683;48.402;10.596;2024-02-23T11:03:43;94881.53;;;4.93;73.21
84445;BME280;74683;48.402;10.596;2024-02-23T11:06:13;94886.69;;;4.98;72.66
84445;BME280;74683;48.402;10.596;2024-02-23T11:08:40;94881.97;;;4.95;72.49
84445;BME280;74683;48.402;10.596;2024-02-23T11:11:11;94886.16;;;5.08;72.72
84445;BME280;74683;48.402;10.596;2024-02-23T11:13:39;94884.59;;;5.07;73.02
84445;BME280;74683;48.402;10.596;2024-02-23T11:16:08;94876.22;;;5.00;71.41
84445;BME280;74683;48.402;10.596;2024-02-23T11:18:39;94875.00;;;5.13;72.04
84445;BME280;74683;48.402;10.596;2024-02-23T11:21:09;94881.16;;;5.10;71.42
84445;BME280;74683;48.402;10.596;2024-02-23T11:23:44;94876.69;;;5.02;71.40
84445;BME280;74683;48.402;10.596;2024-02-23T11:26:12;94878.72;;;5.05;70.88
84445;BME280;74683;48.402;10.596;2024-02-23T11:31:19;94879.56;;;5.09;71.75
84445;BME280;74683;48.402;10.596;2024-02-23T11:33:53;94872.53;;;5.08;72.25
84445;BME280;74683;48.402;10.596;2024-02-23T11:38:53;94870.53;;;5.05;72.67
84445;BME280;74683;48.402;10.596;2024-02-23T11:41:22;94871.75;;;5.08;72.54
84445;BME280;74683;48.402;10.596;2024-02-23T11:43:51;94868.59;;;5.06;72.50
84445;BME280;74683;48.402;10.596;2024-02-23T11:46:18;94869.75;;;5.05;72.11
84445;BME280;74683;48.402;10.596;2024-02-23T11:48:45;94869.63;;;5.17;73.12
84445;BME280;74683;48.402;10.596;2024-02-23T11:51:14;94869.69;;;5.21;73.12
84445;BME280;74683;48.402;10.596;2024-02-23T11:53:42;94870.41;;;5.17;72.21
84445;BME280;74683;48.402;10.596;2024-02-23T11:56:09;94863.81;;;5.18;72.67
84445;BME280;74683;48.402;10.596;2024-02-23T11:58:36;94861.19;;;5.22;72.92
84445;BME280;74683;48.402;10.596;2024-02-23T12:01:03;94855.28;;;5.20;73.03
84445;BME280;74683;48.402;10.596;2024-02-23T12:03:30;94851.44;;;5.21;73.44
84445;BME280;74683;48.402;10.596;2024-02-23T12:05:57;94844.75;;;5.18;72.05
84445;BME280;74683;48.402;10.596;2024-02-23T12:08:26;94850.38;;;5.26;72.93
84445;BME280;74683;48.402;10.596;2024-02-23T12:10:56;94850.44;;;5.29;74.17
84445;BME280;74683;48.402;10.596;2024-02-23T12:13:23;94837.78;;;5.37;73.60
84445;BME280;74683;48.402;10.596;2024-02-23T12:15:53;94841.22;;;5.34;72.56
84445;BME280;74683;48.402;10.596;2024-02-23T12:18:23;94838.84;;;5.32;73.49
84445;BME280;74683;48.402;10.596;2024-02-23T12:20:50;94835.47;;;5.39;73.45
84445;BME280;74683;48.402;10.596;2024-02-23T12:23:16;94834.00;;;5.41;73.69
84445;BME280;74683;48.402;10.596;2024-02-23T12:25:59;94841.09;;;5.46;72.57
84445;BME280;74683;48.402;10.596;2024-02-23T12:28:27;94847.38;;;5.50;72.86
84445;BME280;74683;48.402;10.596;2024-02-23T12:31:03;94844.16;;;5.44;74.01
84445;BME280;74683;48.402;10.596;2024-02-23T12:33:40;94855.69;;;5.38;73.72
84445;BME280;74683;48.402;10.596;2024-02-23T12:36:08;94851.75;;;5.35;74.25
84445;BME280;74683;48.402;10.596;2024-02-23T12:38:37;94850.69;;;5.40;74.11
84445;BME280;74683;48.402;10.596;2024-02-23T12:41:04;94854.72;;;5.46;74.50
84445;BME280;74683;48.402;10.596;2024-02-23T12:43:31;94850.13;;;5.50;73.96
84445;BME280;74683;48.402;10.596;2024-02-23T12:45:58;94849.84;;;5.55;73.86
84445;BME280;74683;48.402;10.596;2024-02-23T12:48:25;94847.19;;;5.59;74.14
84445;BME280;74683;48.402;10.596;2024-02-23T12:50:52;94850.44;;;5.64;74.12
84445;BME280;74683;48.402;10.596;2024-02-23T12:53:35;94861.19;;;5.57;74.50
84445;BME280;74683;48.402;10.596;2024-02-23T12:56:08;94860.81;;;5.59;74.20
84445;BME280;74683;48.402;10.596;2024-02-23T12:58:35;94856.72;;;5.68;74.14
84445;BME280;74683;48.402;10.596;2024-02-23T13:01:03;94847.56;;;5.76;74.14
84445;BME280;74683;48.402;10.596;2024-02-23T13:03:29;94849.22;;;5.81;75.26
84445;BME280;74683;48.402;10.596;2024-02-23T13:05:57;94839.53;;;5.84;74.64